Bates, Illinois
Current Conditions -  °F | °C
As of 8:52 PM on Monday 22 Dec 2014 (Local Time) from KSPI Reporting Station
Light Rain Light Rain  
Wind Chill: 43°   Ceiling: 600
Heat Index: 48°   Visibility: 5mi
Dew Point: 48°   Wind: 12mph
Humidity: 100%   Direction: 150°SSE
Pressure: 29.53"   Gusts: NA
Location:  39.7375°N, 89.904°W
Report Text: KSPI 230252Z 15010KT 5SM -RA BR OVC006 09/09 A2953 RMK AO2 RAB07E22B40 SLP001 P0001 60003 T00890089 58014
Loading
Personal Weather Stations






























Interactive Weather Map New forecast layout! Learn more

10-Day Weather Forecast

Advertisements
Track Severe Weather on mobile